Rodrigo Garcia

Olheiro-Chefe - Liverpool Montevideo
22 Fev 2028
Terça-feira
Processo

Personalidade

Adaptabilidade (14) Ambição (16) Controvérsia (16) Lealdade (19) Pressão (11) Profissionalismo (20) Espírito Esportivo (16) Temperamento (12)

Perfil

Estilo de Treinamento Democrático
Licença Continental C
Determinação 4
Gestão de Pessoas 7
Motivação 10
Disciplina 10
Satisfação no Trabalho
100%
Fadiga
0%
Função Olheiro-Chefe
Salário 65.6K p/s
Contrato 14.03.2030

Desempenho

Comportamento Bom
Eficácia do Treinamento
43%
Desenvolvimento do Jogador
45%
Prevenção de Lesões
55%
Implementação Tática
50%

Eventos Recentes

Participou de uma reunião de recrutamento agora
Participou de uma reunião de recrutamento agora
Recomendou um alvo de transferência agora
Recomendou um alvo de transferência agora
Recomendou um alvo de transferência 7d atrás
Recomendou um alvo de transferência 7d atrás
Recomendou um alvo de transferência 7d atrás
Recomendou um alvo de transferência 7d atrás

Monitorando agora

94
Jogador Clube Status Habilidade Confiança Observado Última observação Último voto
Juan Giménez Celta Ativo 117 / 135 40% 4 11.02.2028 -
Bautista Reinhardt Hrvatski Dragovoljac Ativo 82 / 105 40% 1 11.02.2028 -
Jorthy Mokio ADO Den Haag Ativo 133 / 139 40% 1 11.02.2028 -
Joel McGregor Swindon Town Ativo 93 / 98 40% 5 10.02.2028 -
Diego Vargas San Marcos de Arica Ativo 94 / 96 40% 1 10.02.2028 -
Izan Merino Málaga Ativo 127 / 133 40% 1 10.02.2028 -
Mao Hosoya Everton Negociando 134 / 135 67% 1 01.12.2027 Aprovar
Aurélien Scheidler Tondela Negociando 119 / 119 67% 1 01.12.2027 -
Nahuel Soria Oriental Perdido 95 / 97 69% 1 01.12.2027 -
Esquerdinha Shrewsbury Town Ativo 126 / 124 40% 1 01.12.2027 -
Junior Machis Atletico Venezuela Ativo 73 / 80 40% 1 01.12.2027 -
Franco Pérez Boston River Ativo 114 / 95 65% 1 28.06.2027 Aprovar
Joseph Nuhu Hasaacas Ativo 92 / 92 40% 1 28.06.2027 -
Daniel Costa Sporting CP Ativo 103 / 94 40% 1 28.06.2027 -
Christ Inao Oulaï Fiorentina Ativo 132 / 151 40% 2 22.06.2027 -
Sascha Britschgi Padova Ativo 119 / 124 40% 4 01.06.2027 -
Dion Beljo Standard Liege Negociando 131 / 132 66% 1 01.06.2027 Aprovar
Jefry Zapata Danubio Perdido 118 / 118 67% 1 01.06.2027 Aprovar
Khama Dolly Utrecht Negociando 123 / 124 67% 1 01.06.2027 -
Martim Cunha Porto Ativo 106 / 113 40% 2 31.05.2027 -
Riley Owen Trento Ativo 108 / 102 40% 3 29.05.2027 -
Joel Ezra Enyimba Ativo 95 / 105 40% 1 29.05.2027 -
Zane Albarus Cambridge United Ativo 89 / 94 40% 2 26.05.2027 -
Pietro Reggiori Pro Patria Ativo 90 / 99 40% 1 24.05.2027 -
Adam Bakoune Ospitaletto Ativo 87 / 98 40% 3 23.05.2027 -
Samuel Lucero Defensa y Justicia Ativo 118 / 122 40% 2 23.05.2027 -
Leandro Martins Benfica Ativo 91 / 92 40% 2 21.05.2027 -
Fuzy Taylor Medeama Ativo 84 / 69 40% 1 18.05.2027 -
Jan Bürger Gillingham Ativo 112 / 128 40% 3 17.05.2027 -
Kazunari Kita Real Sociedad Ativo 103 / 115 40% 4 14.05.2027 -
Ernie Weaver AFC Wimbledon Ativo 105 / 118 40% 2 14.05.2027 -
Tobias Slotsager Casertana Ativo 106 / 111 40% 1 13.05.2027 -
Jofre Torrents Ajax Ativo 126 / 136 40% 2 11.05.2027 -
Josh King Chelsea Ativo 138 / 150 40% 2 11.05.2027 -
Caleb Yirenkyi Coventry City Ativo 134 / 144 40% 3 09.05.2027 -
Christos Mouzakitis Hull City Ativo 139 / 130 40% 1 09.05.2027 -
Alexandro Maidana Talleres Ativo 114 / 130 40% 1 01.05.2027 -
David Ozoh Derby County Ativo 125 / 133 40% 2 26.04.2027 -
Leonardo Mendicino Bari Ativo 114 / 112 40% 1 23.04.2027 -
Ronwen Phiri Platinum Stars Ativo 83 / 106 40% 1 22.04.2027 -
Percy Jali Free State Stars Ativo 111 / 116 40% 1 21.04.2027 -
Macaulley Kuma Heart of Lions Ativo 71 / 56 40% 1 11.04.2027 -
Cathal Heffernan Harrogate Town Ativo 78 / 81 40% 2 10.04.2027 -
Keagan Tau Ajax Cape Town Ativo 97 / 100 40% 2 12.03.2027 -
Davide Bartesaghi AC Milan Ativo 124 / 136 40% 2 08.03.2027 -
Mpho Khethang AS Police Ativo 75 / 73 40% 1 04.03.2027 -
Esteban Obregón Liverpool Montevideo Negociando 114 / 116 71% 1 14.12.2026 Aprovar
Luca Martínez Dupuy Godoy Cruz Ativo 128 / 116 40% 2 29.11.2026 -
Tomás O'Connor Gimnasia y Esgrima Ativo 122 / 118 40% 3 28.11.2026 -
César Ibáñez Huracán Ativo 115 / 134 40% 2 28.11.2026 -
Gonzalo Ríos Independiente Rivadavia Ativo 124 / 116 40% 2 20.11.2026 -
Jonás Luna Santa Clara Ativo 123 / 133 40% 1 20.11.2026 -
Misael Sosa Godoy Cruz Ativo 116 / 105 40% 2 19.11.2026 -
Ammar Ramadan DAC Dunajska Streda Ativo 121 / 140 40% 1 18.11.2026 -
Mauro Valiente Estudiantes Ativo 122 / 111 40% 1 17.11.2026 -
Gonzalo Flores Almirante Brown Ativo 108 / 112 40% 2 13.11.2026 -
Renzo Reynaga Patronato Ativo 112 / 106 40% 1 12.11.2026 -
Agustín Módica Gimnasia y Esgrima Ativo 115 / 133 40% 1 12.11.2026 -
Juan Rocca Gimnasia y Tiro Ativo 111 / 113 40% 1 10.11.2026 -
Agustín Gallo Tristán Suárez Ativo 105 / 113 40% 1 10.11.2026 -
Javier Martínez Almirante Brown Ativo 114 / 114 40% 2 09.11.2026 -
Juan Cruz Martins Jihlava Ativo 103 / 118 40% 1 09.11.2026 -
Tomás González Piast Ativo 121 / 118 40% 2 07.11.2026 -
Diego García Malmo FF Ativo 131 / 134 40% 1 05.11.2026 -
Santiago Sala Güemes Ativo 116 / 100 40% 2 04.11.2026 -
Rodrigo Herrera Newell's Old Boys Ativo 121 / 130 40% 1 04.11.2026 -
Juergen Elitím Bohemians 1905 Ativo 109 / 123 40% 1 03.11.2026 -
Alexander Díaz Deportivo Riestra Ativo 127 / 124 40% 2 02.11.2026 -
Matías Fernández Independiente Rivadavia Ativo 122 / 128 40% 1 02.11.2026 -
Lucas Pedraza Defensores Unidos Ativo 96 / 97 40% 1 31.10.2026 -
Augusto Berrondo Tristán Suárez Ativo 113 / 114 40% 2 30.10.2026 -
Rafael Navarro St. Louis CITY SC Ativo 122 / 124 40% 1 30.10.2026 -
Mauro Méndez Tigre Ativo 127 / 124 40% 2 29.10.2026 -
Ezequiel Almirón Estudiantes Ativo 115 / 110 40% 2 29.10.2026 -
Ramiro Ruiz Rodríguez Atlético Tucumán Ativo 119 / 121 40% 4 26.10.2026 -
Santiago Apa All Boys Ativo 114 / 103 40% 1 22.10.2026 -
Joaquín Gho Argentinos Juniors Ativo 117 / 125 40% 1 22.10.2026 -
Ramiro Hernandes Belgrano Ativo 117 / 128 40% 1 22.10.2026 -
Sead Hakšabanović Malmo FF Ativo 112 / 130 40% 1 20.10.2026 Mais informações
Alexis Cuello San Lorenzo Ativo 128 / 117 40% 1 18.10.2026 -
Mandla Mahlangu Ajax Cape Town Ativo 122 / 121 40% 1 15.10.2026 -
Martín Garay Tigre Ativo 118 / 114 40% 1 15.10.2026 -
Juan Mendoza Güemes Ativo 96 / 110 40% 1 13.10.2026 -
Tomás Chancalay Minnesota United FC Ativo 125 / 123 40% 1 12.10.2026 -
Rodrigo González Mitre Ativo 123 / 115 40% 1 11.10.2026 -
Maximiliano Rodríguez Huachipato Ativo 114 / 126 40% 1 08.10.2026 -
Tadeo Allende Inter Miami CF Ativo 123 / 124 40% 1 08.10.2026 -
Yílmar Velásquez Santa Fe Ativo 112 / 122 40% 1 12.09.2026 -
Ronaldo Pájaro Deportivo Cali Ativo 119 / 110 40% 1 12.09.2026 -
Geindry Cuervo Envigado Ativo 104 / 104 40% 1 10.09.2026 -
Fidel Ambríz Monterrey Ativo 130 / 130 40% 1 10.09.2026 -
Ignacio Pérez Universidad Catolica Ativo 99 / 104 40% 1 11.08.2026 -
Juan Camilo Loaiza Llaneros Ativo 96 / 101 40% 1 03.08.2026 -
Hernán de la Fuente Instituto Ativo 117 / 127 40% 1 02.08.2026 -